KOKV Airport (Winchester Rgnl) Information

FAA: OKV - ICAO: KOKV

KOKV Airport Location

State Virginia
County Frederick
City Winchester
KOKV Airport is 3 miles southeast of Winchester, VA.
Latitude 39-08-36.7000N
Longitude 078-08-40.0000W
Elevation 726ft

KOKV Airport METARs

METAR KOKV 121535Z AUTO 02005KT 10SM CLR 23/13 A3009 RMK AO2
Altimeter 30.09"
Temperature 23.0°C (73.4°F)
Wind 20° at 5KT
Clouds Skies are clear.
Visibility 10.0mi
Time observed: 2022-08-12T15:35:00Z

KOKV Airport Details

Status Operational
Activation November 1937
Ownership Public
Usage Public
Chart WASHINGTON
ATC on-site No
Beacon schedule sunset-sunrise
Beacon color clear green

KOKV Airport Contacts

Owner WINCHESTER REG ARPT AUTH
Owner address 491 AIRPORT RD, WINCHESTER, VA 22602
Owner phone 540-662-5786
Manager THOMAS RICHARDS
Manager address 9272 GREEN MEADOWS RD, WARRENTON, VA 20187
Manager phone (703) 568-3607

KOKV Airport (Winchester Rgnl) Radio Frequencies

KOKV (Airport) Radio Frequencies

UNICOM 122.7
Common traffic advisory frequency (CTAF) 122.7